Time;durP1;ratioP1;P1;durP2;ratioP2;P2;SDS_P1;SDS_P2;PMS_P1;PMS_P2;Temp;Humidity;BMP_temperature;BMP_pressure;BME280_temperature;BME280_humidity;BME280_pressure;Samples;Min_cycle;Max_cycle;Signal;HPM_P1;HPM_P2
2022/01/06 00:01:29;;;;;;;1.00;1.00;;;;;;;5.25;61.31;93571.44;2614918;54;20164;-74
2022/01/06 00:03:58;;;;;;;2.10;1.43;;;;;;;5.89;63.74;93596.75;2615215;54;20156;-73
2022/01/06 00:06:28;;;;;;;2.73;1.70;;;;;;;6.40;61.41;93571.69;2615446;54;20141;-73
2022/01/06 00:08:59;;;;;;;1.40;1.30;;;;;;;6.94;60.11;93543.00;2615046;54;20145;-73
2022/01/06 00:11:28;;;;;;;1.00;1.00;;;;;;;7.60;59.24;93627.84;2615420;47;20141;-73
2022/01/06 00:14:04;;;;;;;1.97;1.63;;;;;;;8.64;57.16;93609.31;2615527;47;20192;-74
2022/01/06 00:16:40;;;;;;;1.90;1.90;;;;;;;9.10;54.49;93598.31;2615492;54;20189;-73
2022/01/06 00:24:32;;;;;;;3.30;1.53;;;;;;;8.03;51.83;93604.31;2615970;39;20308;-72
2022/01/06 00:27:01;;;;;;;1.37;1.33;;;;;;;7.81;59.92;93556.53;2615463;54;20171;-74
2022/01/06 00:29:32;;;;;;;2.50;1.93;;;;;;;8.55;53.69;93631.00;2616258;54;20257;-74
2022/01/06 00:32:01;;;;;;;1.57;1.47;;;;;;;9.10;52.22;93632.22;2615785;54;20156;-73
2022/01/06 00:34:29;;;;;;;2.63;1.57;;;;;;;7.52;55.39;93630.47;2615461;47;20183;-74
2022/01/06 00:36:58;;;;;;;4.10;1.73;;;;;;;6.57;55.36;93546.84;2615586;54;20180;-74
2022/01/06 00:39:28;;;;;;;3.23;2.20;;;;;;;5.67;61.16;93622.72;2614986;47;20165;-74
2022/01/06 00:41:59;;;;;;;2.93;1.43;;;;;;;5.20;62.35;93622.47;2615476;54;20286;-74
2022/01/06 00:44:28;;;;;;;0.70;0.70;;;;;;;6.41;65.88;93612.50;2615242;54;20172;-73
2022/01/06 00:47:00;;;;;;;1.03;1.03;;;;;;;6.28;59.42;93596.63;2615423;54;20676;-73
2022/01/06 00:49:28;;;;;;;0.50;0.50;;;;;;;7.18;62.29;93613.31;2615361;47;20140;-73
2022/01/06 00:51:57;;;;;;;1.77;1.70;;;;;;;8.14;59.13;93535.50;2615374;47;20645;-73
2022/01/06 00:54:26;;;;;;;1.87;1.77;;;;;;;8.81;53.90;93624.50;2615341;54;20182;-73
2022/01/06 00:56:55;;;;;;;2.23;2.10;;;;;;;7.34;56.50;93627.88;2615270;47;20149;-73
2022/01/06 00:59:24;;;;;;;2.43;2.03;;;;;;;7.95;55.96;93573.06;2614075;47;20192;-73
2022/01/06 01:01:52;;;;;;;1.13;1.13;;;;;;;9.45;57.72;93621.59;2615149;47;20321;-73
2022/01/06 01:04:24;;;;;;;1.80;1.70;;;;;;;7.24;53.31;93582.53;2615207;47;20159;-73
2022/01/06 01:06:53;;;;;;;1.33;1.23;;;;;;;7.73;56.09;93613.44;2615217;47;20165;-74
2022/01/06 01:09:21;;;;;;;2.83;2.50;;;;;;;8.92;55.60;93626.16;2615358;39;20212;-74
2022/01/06 01:11:50;;;;;;;2.73;2.03;;;;;;;9.25;56.93;93625.47;2615158;47;20192;-74
2022/01/06 01:14:26;;;;;;;1.03;1.03;;;;;;;9.75;53.14;93653.28;2615208;54;20215;-73
2022/01/06 01:16:58;;;;;;;1.13;0.83;;;;;;;9.05;57.81;93655.38;2615319;54;20149;-74
2022/01/06 01:19:32;;;;;;;1.93;1.83;;;;;;;9.13;55.37;93624.50;2615351;47;20664;-73
2022/01/06 01:22:01;;;;;;;1.23;1.23;;;;;;;9.82;55.32;93645.66;2615218;54;20141;-74
2022/01/06 01:24:30;;;;;;;1.23;1.23;;;;;;;9.76;49.69;93663.22;2615258;54;20157;-75
2022/01/06 01:26:59;;;;;;;1.23;1.23;;;;;;;7.90;54.84;93589.19;2615173;47;20162;-74
2022/01/06 01:29:30;;;;;;;1.47;1.47;;;;;;;9.27;56.60;93645.28;2615946;39;20563;-73
2022/01/06 01:31:59;;;;;;;2.70;1.53;;;;;;;8.61;52.52;93641.69;2616023;54;20189;-74
2022/01/06 01:34:31;;;;;;;1.87;1.73;;;;;;;7.92;53.06;93600.53;2617011;39;20521;-74
2022/01/06 01:36:59;;;;;;;1.27;1.17;;;;;;;6.84;63.45;93615.84;2616007;54;20192;-72
2022/01/06 01:39:29;;;;;;;3.03;1.97;;;;;;;7.27;58.29;93612.16;2615954;54;20685;-73
2022/01/06 01:41:58;;;;;;;1.53;1.47;;;;;;;7.94;62.70;93608.28;2615990;47;20152;-75
2022/01/06 01:44:26;;;;;;;1.60;1.60;;;;;;;8.89;55.12;93613.38;2615923;47;20152;-74
2022/01/06 01:47:03;;;;;;;3.17;2.80;;;;;;;6.66;61.69;93635.75;2615981;54;20192;-74
2022/01/06 01:49:47;;;;;;;2.57;2.37;;;;;;;6.38;56.70;93574.44;2615995;47;20160;-75
2022/01/06 01:52:16;;;;;;;2.13;1.43;;;;;;;4.53;64.75;93531.00;2616016;54;20187;-73
2022/01/06 01:54:44;;;;;;;1.50;1.13;;;;;;;5.23;63.30;93591.00;2615749;54;20137;-74
2022/01/06 01:57:13;;;;;;;0.90;0.90;;;;;;;5.66;65.50;93525.06;2616207;54;20134;-73
2022/01/06 01:59:42;;;;;;;0.60;0.60;;;;;;;6.69;60.53;93606.28;2615983;54;20165;-74
2022/01/06 02:02:11;;;;;;;2.30;2.20;;;;;;;7.46;57.80;93588.75;2616207;47;20161;-74
2022/01/06 02:04:42;;;;;;;1.20;1.10;;;;;;;7.03;56.80;93609.38;2616049;54;20152;-73
2022/01/06 02:07:11;;;;;;;1.97;1.87;;;;;;;8.63;59.15;93615.63;2616134;54;20164;-74
2022/01/06 02:09:40;;;;;;;1.70;1.57;;;;;;;9.33;55.59;93622.06;2615953;54;20148;-73
2022/01/06 02:12:10;;;;;;;1.20;1.17;;;;;;;9.62;56.76;93640.31;2616371;54;20185;-73
2022/01/06 02:14:39;;;;;;;1.60;1.50;;;;;;;8.85;52.07;93528.59;2616127;54;20180;-74
2022/01/06 02:17:08;;;;;;;1.27;1.27;;;;;;;9.17;54.40;93625.28;2615843;47;20172;-74
2022/01/06 02:19:37;;;;;;;1.60;1.60;;;;;;;9.31;55.44;93619.22;2615839;54;20133;-74
2022/01/06 02:22:09;;;;;;;1.43;1.43;;;;;;;8.94;53.84;93631.84;2615834;54;20153;-73
2022/01/06 02:24:37;;;;;;;1.50;1.40;;;;;;;8.41;53.41;93622.19;2615766;54;20164;-74
2022/01/06 02:27:06;;;;;;;1.00;1.00;;;;;;;7.04;54.54;93563.69;2615851;47;20160;-74
2022/01/06 02:29:35;;;;;;;2.03;1.93;;;;;;;7.52;58.50;93552.28;2616084;46;20180;-73
2022/01/06 02:32:11;;;;;;;1.07;1.07;;;;;;;8.29;54.15;93588.03;2616098;54;20164;-74
2022/01/06 02:34:40;;;;;;;1.87;1.77;;;;;;;8.53;57.53;93599.19;2615940;54;20316;-74
2022/01/06 02:37:13;;;;;;;0.93;0.93;;;;;;;8.54;55.28;93660.59;2615787;54;20688;-73
2022/01/06 02:39:43;;;;;;;4.90;1.80;;;;;;;8.32;54.33;93561.34;2615800;54;20149;-74
2022/01/06 02:42:12;;;;;;;4.07;2.43;;;;;;;4.96;60.96;93658.78;2615859;54;20192;-73
2022/01/06 02:44:41;;;;;;;0.60;0.60;;;;;;;4.15;65.68;93541.50;2616256;54;20164;-74
2022/01/06 02:47:10;;;;;;;1.70;1.70;;;;;;;7.27;65.54;93660.03;2616034;54;20148;-73
2022/01/06 02:49:39;;;;;;;1.57;0.87;;;;;;;6.25;58.23;93645.72;2615901;54;20157;-74
2022/01/06 02:52:11;;;;;;;0.97;0.97;;;;;;;5.25;61.31;93565.81;2615737;54;20184;-73
2022/01/06 02:54:40;;;;;;;3.23;2.10;;;;;;;3.81;62.78;93560.53;2615771;47;20145;-73
2022/01/06 02:57:09;;;;;;;0.97;0.97;;;;;;;2.61;70.89;93554.78;2615814;54;20197;-74
2022/01/06 02:59:38;;;;;;;1.67;1.57;;;;;;;5.08;67.80;93636.06;2616229;54;20160;-73
2022/01/06 03:02:07;;;;;;;1.77;1.40;;;;;;;4.85;68.12;93638.06;2615962;54;20183;-74
2022/01/06 03:04:36;;;;;;;0.70;0.70;;;;;;;6.21;60.85;93628.72;2616334;54;20149;-74
2022/01/06 03:07:07;;;;;;;1.47;1.37;;;;;;;6.41;58.95;93634.28;2615847;54;20149;-74
2022/01/06 03:09:41;;;;;;;1.03;1.03;;;;;;;6.66;65.58;93636.47;2615681;46;20290;-74
2022/01/06 03:12:21;;;;;;;3.10;1.77;;;;;;;7.35;62.51;93635.66;2614578;47;20152;-73
2022/01/06 03:14:50;;;;;;;1.33;1.20;;;;;;;8.42;58.16;93646.19;2615849;46;20200;-73
2022/01/06 03:17:19;;;;;;;1.03;1.03;;;;;;;5.65;60.82;93622.66;2615608;54;20669;-74
2022/01/06 03:19:48;;;;;;;2.87;2.67;;;;;;;5.66;59.22;93584.03;2616376;39;20542;-73
2022/01/06 03:22:16;;;;;;;2.43;1.17;;;;;;;4.73;66.15;93623.59;2615515;54;20293;-74
2022/01/06 03:24:48;;;;;;;1.13;1.13;;;;;;;5.48;58.86;93594.66;2615975;39;20540;-74
2022/01/06 03:27:17;;;;;;;0.60;0.60;;;;;;;4.79;69.48;93646.25;2616348;54;20148;-73
2022/01/06 03:29:47;;;;;;;2.03;1.33;;;;;;;6.40;61.55;93650.44;2615753;54;20145;-73
2022/01/06 03:32:16;;;;;;;1.97;1.13;;;;;;;5.12;64.38;93552.03;2615806;47;20156;-73
2022/01/06 03:34:45;;;;;;;0.90;0.90;;;;;;;6.74;58.11;93659.22;2616092;54;20172;-74
2022/01/06 03:37:14;;;;;;;1.70;1.60;;;;;;;6.63;64.82;93642.69;2616019;39;20648;-73
2022/01/06 03:39:44;;;;;;;1.27;1.27;;;;;;;7.49;58.75;93640.97;2615475;47;20153;-74
2022/01/06 03:42:16;;;;;;;0.73;0.73;;;;;;;8.08;57.40;93646.03;2615456;54;20160;-75
2022/01/06 03:44:45;;;;;;;1.40;1.40;;;;;;;7.92;55.05;93611.81;2615943;54;20160;-75
2022/01/06 03:47:14;;;;;;;1.17;1.17;;;;;;;7.77;59.98;93590.28;2615398;47;20160;-75
2022/01/06 03:49:42;;;;;;;1.03;1.03;;;;;;;9.45;58.93;93652.69;2615637;39;20592;-76
2022/01/06 03:52:11;;;;;;;1.60;1.50;;;;;;;8.26;54.12;93558.31;2615291;47;20157;-74
2022/01/06 03:54:40;;;;;;;2.73;1.73;;;;;;;5.46;59.38;93617.06;2616114;54;20156;-74
2022/01/06 03:57:09;;;;;;;1.30;1.20;;;;;;;5.45;64.16;93652.84;2615600;47;20160;-73
2022/01/06 03:59:41;;;;;;;1.60;1.50;;;;;;;5.21;59.87;93503.94;2615361;54;20153;-74
2022/01/06 04:02:10;;;;;;;0.77;0.53;;;;;;;5.43;65.54;93633.13;2615103;54;20153;-74
2022/01/06 04:04:39;;;;;;;0.77;0.77;;;;;;;6.23;61.11;93667.44;2615676;54;20165;-75
2022/01/06 04:07:08;;;;;;;1.37;1.37;;;;;;;7.02;64.11;93647.34;2615525;39;20280;-74
2022/01/06 04:09:36;;;;;;;0.70;0.70;;;;;;;8.14;61.72;93673.66;2615542;47;20171;-75
2022/01/06 04:12:09;;;;;;;1.37;1.27;;;;;;;6.47;59.61;93670.28;2615714;39;20674;-74
2022/01/06 04:14:41;;;;;;;1.00;1.00;;;;;;;6.97;61.83;93584.59;2615839;47;20185;-74
2022/01/06 04:17:09;;;;;;;1.67;0.60;;;;;;;7.74;56.20;93667.69;2616134;54;20164;-74
2022/01/06 04:19:38;;;;;;;1.20;1.20;;;;;;;7.81;62.24;93664.34;2615392;54;20133;-75
2022/01/06 04:22:07;;;;;;;1.70;1.60;;;;;;;9.02;58.56;93665.22;2615414;47;20661;-74
2022/01/06 04:24:36;;;;;;;1.87;1.77;;;;;;;6.49;56.75;93656.31;2615603;54;20177;-74
2022/01/06 04:27:06;;;;;;;1.37;1.37;;;;;;;6.41;63.54;93637.81;2616154;39;20830;-74
2022/01/06 04:29:34;;;;;;;2.13;1.20;;;;;;;7.03;57.12;93654.44;2615542;47;20152;-74
2022/01/06 04:32:06;;;;;;;1.30;1.30;;;;;;;8.34;56.88;93665.72;2615508;47;20157;-74
2022/01/06 04:34:36;;;;;;;2.00;1.93;;;;;;;7.44;56.85;93662.66;2615426;54;20270;-74
2022/01/06 04:37:06;;;;;;;2.67;2.47;;;;;;;6.12;58.33;93686.06;2615523;54;20171;-74
2022/01/06 04:39:34;;;;;;;1.73;1.73;;;;;;;5.32;65.10;93665.03;2615588;54;20182;-74
2022/01/06 04:42:03;;;;;;;0.60;0.60;;;;;;;5.90;62.34;93668.44;2615691;54;20168;-74
2022/01/06 04:44:32;;;;;;;0.87;0.87;;;;;;;6.38;60.37;93674.97;2616028;54;20149;-74
2022/01/06 04:47:01;;;;;;;1.00;1.00;;;;;;;6.97;60.87;93666.22;2615091;54;20152;-74
2022/01/06 04:49:32;;;;;;;3.10;2.13;;;;;;;7.60;59.20;93631.41;2615609;54;20164;-73
2022/01/06 04:52:01;;;;;;;1.60;1.50;;;;;;;7.37;56.53;93702.59;2615841;54;20149;-74
2022/01/06 04:54:30;;;;;;;1.30;1.30;;;;;;;8.79;60.16;93700.69;2615239;50;20141;-73
2022/01/06 04:56:58;;;;;;;1.97;1.87;;;;;;;8.93;55.43;93720.78;2615402;47;20180;-74
2022/01/06 04:59:27;;;;;;;1.70;1.70;;;;;;;6.02;59.64;93674.47;2616673;31;20694;-75
2022/01/06 05:01:55;;;;;;;1.23;1.23;;;;;;;7.05;59.23;93713.63;2615384;47;20676;-73
2022/01/06 05:04:24;;;;;;;4.33;2.43;;;;;;;6.91;60.07;93609.75;2615655;54;20645;-74
2022/01/06 05:06:56;;;;;;;2.20;2.13;;;;;;;6.32;61.73;93672.66;2616194;47;20157;-74
2022/01/06 05:09:25;;;;;;;0.93;0.93;;;;;;;8.11;61.08;93706.03;2616131;47;20985;-74
2022/01/06 05:11:54;;;;;;;2.00;1.73;;;;;;;5.55;61.68;93703.75;2616307;54;20171;-75
2022/01/06 05:14:23;;;;;;;1.77;1.73;;;;;;;5.80;64.96;93674.41;2615108;47;20236;-74
2022/01/06 05:16:51;;;;;;;0.97;0.97;;;;;;;7.35;62.06;93703.25;2616215;54;20145;-73
2022/01/06 05:19:20;;;;;;;2.03;1.87;;;;;;;5.72;63.50;93665.72;2615853;54;20149;-74
2022/01/06 05:21:51;;;;;;;1.73;1.63;;;;;;;6.52;61.57;93643.75;2616011;47;20152;-74
2022/01/06 05:24:24;;;;;;;1.30;1.30;;;;;;;6.88;59.56;93706.75;2616123;54;20149;-74
2022/01/06 05:26:54;;;;;;;1.50;1.40;;;;;;;7.93;61.25;93675.22;2616120;47;20164;-76
2022/01/06 05:29:23;;;;;;;1.97;1.87;;;;;;;7.84;58.02;93701.78;2615851;54;20160;-75
2022/01/06 05:31:52;;;;;;;2.17;2.08;;;;;;;8.72;57.87;93702.66;2616430;54;20400;-76
2022/01/06 05:34:21;;;;;;;2.50;2.30;;;;;;;6.49;58.74;93628.19;2616128;54;20156;-78
2022/01/06 05:36:50;;;;;;;2.47;2.17;;;;;;;7.43;62.00;93641.50;2615740;54;20149;-76
2022/01/06 05:39:19;;;;;;;1.67;1.67;;;;;;;8.67;57.54;93708.84;2616133;39;20468;-79
2022/01/06 05:41:50;;;;;;;3.33;3.10;;;;;;;6.37;57.85;93677.03;2615771;54;20161;-77
2022/01/06 05:44:19;;;;;;;2.37;1.53;;;;;;;6.85;62.40;93724.97;2615656;54;20163;-77
2022/01/06 05:46:48;;;;;;;1.67;1.67;;;;;;;6.75;58.39;93694.41;2615683;54;20164;-78
2022/01/06 05:49:17;;;;;;;1.23;1.23;;;;;;;7.03;60.13;93665.69;2616247;47;20161;-77
2022/01/06 05:51:46;;;;;;;3.07;2.10;;;;;;;6.30;58.45;93677.50;2615968;47;20161;-78
2022/01/06 05:54:15;;;;;;;1.23;1.20;;;;;;;6.36;61.39;93711.44;2616333;47;20274;-77
2022/01/06 05:56:44;;;;;;;2.80;2.70;;;;;;;7.28;59.65;93712.88;2616605;46;20157;-76
2022/01/06 05:59:15;;;;;;;1.67;1.67;;;;;;;7.42;59.23;93704.13;2616525;47;20187;-78
2022/01/06 06:01:46;;;;;;;2.07;1.63;;;;;;;7.25;58.57;93685.31;2616245;47;20141;-78
2022/01/06 06:04:14;;;;;;;1.27;1.27;;;;;;;6.35;61.59;93702.28;2616218;47;20155;-76
2022/01/06 06:06:43;;;;;;;2.47;1.73;;;;;;;6.07;62.48;93698.53;2615991;54;20163;-78
2022/01/06 06:09:12;;;;;;;1.57;1.47;;;;;;;6.40;62.62;93692.63;2616242;54;20149;-79
2022/01/06 06:11:40;;;;;;;4.00;1.50;;;;;;;7.37;63.80;93725.13;2615806;54;20193;-76
2022/01/06 06:14:09;;;;;;;2.00;1.93;;;;;;;8.23;58.77;93714.78;2616191;54;20168;-78
2022/01/06 06:16:41;;;;;;;1.47;1.37;;;;;;;8.30;58.45;93667.72;2615706;47;20153;-77
2022/01/06 06:19:10;;;;;;;2.23;2.00;;;;;;;8.14;53.50;93696.94;2615993;54;20153;-76
2022/01/06 06:21:38;;;;;;;2.47;2.43;;;;;;;7.27;57.40;93713.53;2615966;47;20165;-78
2022/01/06 06:24:09;;;;;;;3.13;2.37;;;;;;;8.44;58.73;93730.91;2615711;54;20141;-76
2022/01/06 06:26:37;;;;;;;2.67;2.47;;;;;;;8.17;56.36;93709.00;2615988;47;20152;-77
2022/01/06 06:29:06;;;;;;;1.80;1.20;;;;;;;8.18;59.72;93722.44;2616200;47;20204;-78
2022/01/06 06:31:35;;;;;;;2.77;1.50;;;;;;;8.25;57.54;93652.78;2616065;47;20281;-77
2022/01/06 06:34:06;;;;;;;2.53;2.33;;;;;;;8.60;55.60;93693.91;2615780;54;20265;-78
2022/01/06 06:36:35;;;;;;;2.60;2.50;;;;;;;8.86;56.55;93713.56;2615974;54;20331;-77
2022/01/06 06:39:03;;;;;;;2.13;2.03;;;;;;;7.62;54.25;93670.19;2615676;47;20137;-77
2022/01/06 06:41:32;;;;;;;4.70;3.80;;;;;;;7.29;58.09;93685.44;2615377;54;20391;-77
2022/01/06 06:44:01;;;;;;;1.50;1.50;;;;;;;7.88;56.00;93727.28;2615772;47;20699;-76
2022/01/06 06:46:30;;;;;;;1.73;1.70;;;;;;;5.00;63.33;93698.22;2615895;47;20153;-78
2022/01/06 06:48:59;;;;;;;1.17;1.17;;;;;;;6.42;61.36;93701.09;2616049;54;20173;-77
2022/01/06 06:52:01;;;;;;;1.80;1.80;;;;;;;5.28;62.18;93507.66;2614456;47;20164;-77
2022/01/06 06:57:21;;;;;;;1.60;1.60;;;;;;;2.81;63.37;93421.47;2614454;39;20561;-80
2022/01/06 06:59:49;;;;;;;1.27;1.27;;;;;;;6.69;64.76;93753.31;2615632;47;20153;-72
2022/01/06 07:02:18;;;;;;;4.20;3.80;;;;;;;4.30;64.58;93682.91;2615775;54;20232;-72
2022/01/06 07:04:47;;;;;;;1.77;1.70;;;;;;;5.70;66.89;93686.03;2615960;39;20499;-72
2022/01/06 07:07:18;;;;;;;2.17;2.13;;;;;;;4.86;64.34;93644.38;2615657;46;20232;-72
2022/01/06 07:09:47;;;;;;;1.73;1.37;;;;;;;6.18;63.83;93725.59;2615743;54;20695;-72
2022/01/06 07:12:16;;;;;;;14.33;2.20;;;;;;;6.84;66.13;93717.16;2616244;54;20185;-73
2022/01/06 07:14:45;;;;;;;3.17;3.07;;;;;;;7.18;61.48;93737.22;2616202;47;20222;-72
2022/01/06 07:17:14;;;;;;;2.43;2.33;;;;;;;7.55;60.83;93722.09;2615842;54;20164;-72
2022/01/06 07:19:43;;;;;;;14.27;2.13;;;;;;;7.72;60.21;93755.00;2615677;47;20133;-74
2022/01/06 07:22:13;;;;;;;2.47;2.37;;;;;;;8.43;59.02;93737.19;2615799;54;20160;-73
2022/01/06 07:24:45;;;;;;;2.03;1.93;;;;;;;8.67;58.94;93754.03;2615626;54;20152;-72
2022/01/06 07:27:13;;;;;;;2.00;1.90;;;;;;;8.91;56.49;93777.19;2616086;39;20673;-72
2022/01/06 07:29:42;;;;;;;2.27;2.10;;;;;;;9.53;55.83;93763.81;2615618;47;20177;-73
2022/01/06 07:32:15;;;;;;;2.20;2.10;;;;;;;9.30;54.73;93711.00;2613951;47;20160;-77
2022/01/06 07:34:44;;;;;;;2.00;1.90;;;;;;;10.05;55.08;93771.25;2615054;47;20205;-74
2022/01/06 07:37:13;;;;;;;1.23;1.23;;;;;;;9.60;57.66;93742.75;2615011;47;20205;-76
2022/01/06 07:39:45;;;;;;;3.50;2.67;;;;;;;8.06;59.87;93741.84;2615170;47;20160;-75
2022/01/06 07:42:13;;;;;;;5.43;3.13;;;;;;;9.04;59.14;93759.16;2612914;54;20164;-74
2022/01/06 07:44:42;;;;;;;3.23;2.23;;;;;;;9.57;61.26;93737.72;2615612;39;20547;-74
2022/01/06 07:47:12;;;;;;;2.00;1.90;;;;;;;9.50;57.33;93680.38;2615460;54;20157;-73
2022/01/06 07:49:41;;;;;;;1.07;1.07;;;;;;;10.09;54.56;93765.66;2615831;54;20345;-72
2022/01/06 07:52:10;;;;;;;1.80;1.80;;;;;;;10.06;55.17;93779.06;2615274;54;20157;-72
2022/01/06 07:54:38;;;;;;;3.63;3.47;;;;;;;8.90;56.28;93736.94;2614607;47;20193;-74
2022/01/06 07:57:11;;;;;;;3.20;3.00;;;;;;;8.60;57.69;93729.88;2614326;54;20149;-71
2022/01/06 07:59:40;;;;;;;3.50;3.27;;;;;;;9.23;56.36;93786.44;2611712;47;20195;-71
2022/01/06 08:02:09;;;;;;;1.90;1.90;;;;;;;8.04;59.80;93786.22;2613889;54;20196;-71
2022/01/06 08:04:38;;;;;;;2.37;2.27;;;;;;;7.96;62.70;93769.06;2615359;47;20190;-72
2022/01/06 08:07:07;;;;;;;1.30;1.27;;;;;;;9.36;61.20;93795.94;2615575;47;20289;-71
2022/01/06 08:09:35;;;;;;;2.20;1.67;;;;;;;9.74;55.77;93784.03;2615540;39;20537;-72
2022/01/06 08:12:05;;;;;;;2.63;1.73;;;;;;;9.62;56.20;93765.41;2616270;54;20168;-73
2022/01/06 08:14:37;;;;;;;3.53;2.63;;;;;;;9.65;55.50;93797.28;2615897;47;20196;-73
2022/01/06 08:17:07;;;;;;;3.00;2.23;;;;;;;10.14;54.94;93793.34;2615873;54;20293;-72
2022/01/06 08:19:38;;;;;;;2.47;1.77;;;;;;;10.06;54.46;93741.56;2616180;39;20534;-72
2022/01/06 08:22:08;;;;;;;1.97;1.87;;;;;;;10.47;52.79;93768.53;2616500;54;20697;-75
2022/01/06 08:24:45;;;;;;;1.50;1.40;;;;;;;10.48;53.82;93799.00;2616001;54;20195;-73
2022/01/06 08:27:14;;;;;;;2.53;2.20;;;;;;;8.96;57.11;93750.50;2614857;47;20152;-73
2022/01/06 08:29:46;;;;;;;1.10;1.10;;;;;;;9.49;58.53;93765.81;2615137;39;20566;-73
2022/01/06 08:32:14;;;;;;;2.10;1.90;;;;;;;10.08;55.93;93733.84;2615252;54;20145;-74
2022/01/06 08:34:43;;;;;;;2.23;2.03;;;;;;;9.27;55.10;93758.31;2616230;54;20145;-72
2022/01/06 08:37:12;;;;;;;1.97;1.70;;;;;;;9.46;56.99;93803.91;2615535;54;20165;-72
2022/01/06 08:39:41;;;;;;;2.53;2.40;;;;;;;10.31;54.52;93794.41;2615138;47;20179;-72
2022/01/06 08:42:11;;;;;;;1.60;1.50;;;;;;;10.17;53.74;93794.13;2615517;47;20676;-72
2022/01/06 08:44:41;;;;;;;2.13;2.03;;;;;;;10.74;53.74;93806.53;2615570;54;20149;-72
2022/01/06 08:47:14;;;;;;;1.27;1.20;;;;;;;10.59;52.52;93723.47;2615737;54;20164;-72
2022/01/06 08:49:43;;;;;;;5.17;2.43;;;;;;;11.54;52.81;93803.59;2615460;54;20188;-76
2022/01/06 08:52:12;;;;;;;0.97;0.97;;;;;;;11.86;51.00;93792.75;2615536;47;20148;-76
2022/01/06 08:54:41;;;;;;;1.63;1.53;;;;;;;11.96;49.81;93775.16;2615519;54;20156;-73
2022/01/06 08:57:09;;;;;;;2.60;2.50;;;;;;;11.73;51.32;93794.69;2615308;47;20196;-72
2022/01/06 08:59:38;;;;;;;2.03;1.93;;;;;;;11.45;50.56;93771.59;2615273;54;20169;-71
2022/01/06 09:02:07;;;;;;;3.30;2.37;;;;;;;11.11;50.86;93788.06;2615340;47;20241;-71
2022/01/06 09:04:38;;;;;;;1.87;1.53;;;;;;;10.09;52.22;93700.59;2615676;39;20330;-72
2022/01/06 09:07:07;;;;;;;2.23;2.00;;;;;;;11.64;53.85;93781.06;2614678;47;20188;-71
2022/01/06 09:09:36;;;;;;;3.40;3.17;;;;;;;12.00;49.31;93775.22;2615420;54;20174;-70
2022/01/06 09:12:06;;;;;;;2.17;1.97;;;;;;;12.26;48.80;93766.28;2615647;54;20145;-71
2022/01/06 09:14:34;;;;;;;1.87;1.87;;;;;;;12.01;48.76;93780.19;2615032;47;20201;-72
2022/01/06 09:17:03;;;;;;;1.60;1.53;;;;;;;12.37;49.19;93736.59;2614107;47;20149;-72
2022/01/06 09:19:32;;;;;;;1.67;1.67;;;;;;;12.86;47.14;93785.38;2615375;47;20158;-71
2022/01/06 09:22:03;;;;;;;2.33;2.20;;;;;;;12.36;47.49;93780.59;2614583;39;20573;-73
2022/01/06 09:24:32;;;;;;;1.90;1.80;;;;;;;12.96;47.49;93774.13;2615280;47;20637;-72
2022/01/06 09:27:00;;;;;;;1.97;1.70;;;;;;;13.14;47.58;93731.63;2615040;54;20659;-71
2022/01/06 09:29:29;;;;;;;3.13;2.17;;;;;;;13.30;46.48;93754.53;2616098;39;20267;-71
2022/01/06 09:31:58;;;;;;;3.90;1.63;;;;;;;13.45;45.98;93753.22;2615244;47;20630;-71
2022/01/06 09:34:26;;;;;;;1.93;1.87;;;;;;;13.66;46.53;93759.06;2615314;54;20217;-71
2022/01/06 09:36:55;;;;;;;2.77;2.67;;;;;;;13.77;46.91;93766.25;2614523;47;20252;-70
2022/01/06 09:39:26;;;;;;;2.67;2.57;;;;;;;13.01;45.39;93738.63;2615349;47;20172;-74
2022/01/06 09:41:55;;;;;;;1.70;1.70;;;;;;;13.09;47.32;93741.56;2615276;47;20717;-72
2022/01/06 09:44:24;;;;;;;3.60;2.20;;;;;;;13.57;46.10;93758.28;2615217;54;20153;-72
2022/01/06 09:46:54;;;;;;;4.83;2.03;;;;;;;13.80;47.02;93747.75;2615249;47;20653;-76
2022/01/06 09:49:23;;;;;;;2.17;1.97;;;;;;;13.73;46.25;93724.25;2615241;47;20164;-74
2022/01/06 09:51:52;;;;;;;1.27;1.27;;;;;;;13.49;45.77;93701.34;2615710;54;20168;-75
2022/01/06 09:54:21;;;;;;;2.00;1.97;;;;;;;13.72;45.14;93742.00;2616067;54;20157;-72
2022/01/06 09:56:55;;;;;;;2.77;2.57;;;;;;;13.86;45.99;93750.63;2616151;47;20149;-71
2022/01/06 09:59:24;;;;;;;3.03;2.23;;;;;;;13.94;46.38;93716.50;2616200;47;20164;-74
2022/01/06 10:01:53;;;;;;;3.47;2.53;;;;;;;14.21;45.10;93745.81;2615861;47;20164;-73
2022/01/06 10:04:25;;;;;;;1.90;1.80;;;;;;;14.09;44.58;93723.69;2615903;47;20720;-72
2022/01/06 10:07:02;;;;;;;1.57;1.47;;;;;;;14.13;44.22;93746.50;2616108;54;20264;-75
2022/01/06 10:09:33;;;;;;;2.23;2.13;;;;;;;12.98;45.09;93664.03;2616759;39;20512;-73
2022/01/06 10:12:11;;;;;;;2.77;2.27;;;;;;;13.32;45.30;93739.63;2616126;54;20165;-72
2022/01/06 10:14:45;;;;;;;2.97;2.77;;;;;;;12.41;46.34;93623.09;2616083;47;20216;-72
2022/01/06 10:17:18;;;;;;;2.23;2.03;;;;;;;13.62;45.08;93741.97;2616483;46;20167;-74
2022/01/06 10:19:47;;;;;;;5.90;3.10;;;;;;;13.30;45.43;93711.16;2616268;54;20133;-73
2022/01/06 10:22:21;;;;;;;7.37;3.60;;;;;;;13.46;45.26;93725.50;2616313;47;20660;-73
2022/01/06 10:24:55;;;;;;;1.93;1.83;;;;;;;13.78;44.89;93748.47;2616025;47;20149;-73
2022/01/06 10:27:27;;;;;;;2.37;2.23;;;;;;;13.53;45.17;93665.09;2615979;54;20149;-73
2022/01/06 10:29:56;;;;;;;2.53;2.43;;;;;;;14.02;44.32;93684.53;2615949;54;20179;-74
2022/01/06 10:32:28;;;;;;;9.70;2.60;;;;;;;14.63;45.14;93736.69;2615963;54;20771;-75
2022/01/06 10:35:02;;;;;;;2.83;2.63;;;;;;;14.43;42.33;93668.28;2615951;54;20157;-72
2022/01/06 10:37:34;;;;;;;2.67;2.47;;;;;;;14.87;41.79;93722.50;2616022;54;20176;-72
2022/01/06 10:40:07;;;;;;;2.37;2.27;;;;;;;14.88;45.52;93677.63;2616555;54;20149;-72
2022/01/06 10:42:41;;;;;;;2.17;2.07;;;;;;;14.82;42.25;93649.81;2616013;47;20172;-73
2022/01/06 10:45:14;;;;;;;2.50;2.30;;;;;;;15.22;41.90;93723.22;2616215;48;20167;-73
2022/01/06 10:47:45;;;;;;;1.73;1.70;;;;;;;15.39;41.89;93731.78;2615799;47;20189;-72
2022/01/06 10:50:19;;;;;;;1.30;1.30;;;;;;;14.71;40.70;93642.69;2616128;39;20524;-73
2022/01/06 10:52:51;;;;;;;2.60;2.10;;;;;;;15.33;40.53;93720.38;2615915;54;20141;-74
2022/01/06 10:55:23;;;;;;;2.97;1.90;;;;;;;15.31;41.11;93723.94;2615959;47;20141;-74
2022/01/06 10:58:00;;;;;;;2.67;2.00;;;;;;;14.82;40.96;93629.84;2615853;47;20153;-74
2022/01/06 11:00:31;;;;;;;7.57;1.80;;;;;;;15.46;39.63;93705.38;2615702;54;20177;-75
2022/01/06 11:03:14;;;;;;;1.53;1.43;;;;;;;15.44;38.77;93699.69;2615730;47;20646;-74
2022/01/06 11:05:45;;;;;;;1.10;1.10;;;;;;;15.45;37.41;93692.53;2615889;54;20161;-76
2022/01/06 11:08:17;;;;;;;0.77;0.77;;;;;;;15.56;39.79;93676.16;2615502;47;20137;-77
2022/01/06 11:10:51;;;;;;;0.77;0.77;;;;;;;15.55;38.57;93695.41;2616373;47;20156;-76
2022/01/06 11:13:22;;;;;;;2.23;2.03;;;;;;;15.42;36.99;93665.44;2616090;54;20661;-76
2022/01/06 11:15:54;;;;;;;1.37;1.37;;;;;;;15.41;38.26;93694.69;2615979;47;20236;-75
2022/01/06 11:18:23;;;;;;;1.23;1.23;;;;;;;15.56;38.81;93713.25;2615975;54;20141;-72
2022/01/06 11:20:52;;;;;;;1.93;1.30;;;;;;;15.63;37.19;93698.25;2615574;54;20156;-71
2022/01/06 11:23:25;;;;;;;0.90;0.90;;;;;;;15.48;37.27;93679.69;2615829;47;20208;-71
2022/01/06 11:26:07;;;;;;;1.63;1.53;;;;;;;15.68;36.89;93703.94;2615181;54;20176;-70
2022/01/06 11:28:39;;;;;;;0.90;0.90;;;;;;;14.89;37.67;93619.88;2615946;46;20176;-71
2022/01/06 11:31:18;;;;;;;1.47;0.87;;;;;;;15.46;38.18;93688.25;2615747;47;20179;-72
2022/01/06 11:33:49;;;;;;;0.93;0.80;;;;;;;15.55;37.38;93689.72;2615270;47;20735;-76
2022/01/06 11:36:24;;;;;;;0.70;0.70;;;;;;;15.75;37.38;93705.34;2615233;47;20159;-77
2022/01/06 11:38:54;;;;;;;0.90;0.90;;;;;;;15.79;35.90;93725.34;2615299;47;20155;-71
2022/01/06 11:41:27;;;;;;;0.47;0.47;;;;;;;15.64;35.64;93691.09;2615627;54;20141;-71
2022/01/06 11:44:01;;;;;;;0.77;0.60;;;;;;;15.71;36.28;93691.81;2616117;39;20541;-73
2022/01/06 11:46:31;;;;;;;2.63;0.60;;;;;;;15.74;36.53;93686.78;2615493;54;20670;-71
2022/01/06 11:49:02;;;;;;;0.50;0.50;;;;;;;15.73;35.91;93680.38;2615934;47;20330;-74
2022/01/06 11:51:32;;;;;;;0.60;0.60;;;;;;;15.91;35.65;93703.16;2615865;47;20153;-75
2022/01/06 11:54:13;;;;;;;0.40;0.40;;;;;;;15.80;36.73;93672.50;2615987;47;20145;-74
2022/01/06 11:56:47;;;;;;;0.47;0.47;;;;;;;15.92;35.82;93683.88;2615861;54;20148;-76
2022/01/06 11:59:30;;;;;;;0.60;0.60;;;;;;;15.07;35.58;93609.88;2616035;54;20160;-77
2022/01/06 12:01:59;;;;;;;0.50;0.50;;;;;;;15.73;36.07;93685.38;2616078;54;20179;-74